createdAt,value
2022-10-13T00:00:31.448Z,13.20
2022-10-13T00:03:18.920Z,14.83
2022-10-13T00:06:07.676Z,14.47
2022-10-13T00:08:55.799Z,12.33
2022-10-13T00:11:42.639Z,13.43
2022-10-13T00:14:30.133Z,13.37
2022-10-13T00:17:16.952Z,13.00
2022-10-13T00:20:04.971Z,14.70
2022-10-13T00:22:51.876Z,14.87
2022-10-13T00:25:41.812Z,12.83
2022-10-13T00:28:28.767Z,14.47
2022-10-13T00:31:18.958Z,13.23
2022-10-13T00:34:05.777Z,14.53
2022-10-13T00:36:52.608Z,12.13
2022-10-13T00:39:39.577Z,14.50
2022-10-13T00:42:26.412Z,14.30
2022-10-13T00:45:22.465Z,13.43
2022-10-13T00:48:09.973Z,12.30
2022-10-13T00:50:58.110Z,12.80
2022-10-13T00:53:47.106Z,16.43
2022-10-13T00:56:37.277Z,14.73
2022-10-13T00:59:28.282Z,18.57
2022-10-13T01:02:15.767Z,15.93
2022-10-13T01:05:04.642Z,16.33
2022-10-13T01:07:52.898Z,19.30
2022-10-13T01:10:52.140Z,19.67
2022-10-13T01:13:43.209Z,14.13
2022-10-13T01:16:38.974Z,14.87
2022-10-13T01:19:41.463Z,14.37
2022-10-13T01:22:44.706Z,13.73
2022-10-13T01:25:49.826Z,14.37
2022-10-13T01:29:04.827Z,17.43
2022-10-13T01:31:59.835Z,17.00
2022-10-13T01:34:53.133Z,16.57
2022-10-13T01:37:45.266Z,16.67
2022-10-13T01:40:40.038Z,20.57
2022-10-13T01:43:30.470Z,16.73
2022-10-13T01:46:21.515Z,14.60
2022-10-13T01:49:11.431Z,15.47
2022-10-13T01:52:02.419Z,13.27
2022-10-13T01:54:51.263Z,16.13
2022-10-13T01:57:40.903Z,14.17
2022-10-13T02:00:34.475Z,17.93
2022-10-13T02:03:26.871Z,17.00
2022-10-13T02:06:21.067Z,13.73
2022-10-13T02:09:13.291Z,14.47
2022-10-13T02:12:06.831Z,14.23
2022-10-13T02:14:56.669Z,12.57
2022-10-13T02:17:43.532Z,14.23
2022-10-13T02:20:31.399Z,13.83
2022-10-13T02:23:19.175Z,16.07
2022-10-13T02:26:06.071Z,15.63
2022-10-13T02:28:52.982Z,16.03
2022-10-13T02:31:40.892Z,18.57
2022-10-13T02:34:27.996Z,18.63
2022-10-13T02:37:14.827Z,17.53
2022-10-13T02:40:02.507Z,14.93
2022-10-13T02:42:49.535Z,15.50
2022-10-13T02:45:36.404Z,15.07
2022-10-13T02:48:23.244Z,18.73
2022-10-13T02:51:10.084Z,19.87
2022-10-13T02:53:56.928Z,18.77
2022-10-13T02:56:44.400Z,13.30
2022-10-13T02:59:31.240Z,15.70
2022-10-13T03:02:19.024Z,14.53
2022-10-13T03:05:06.717Z,22.97
2022-10-13T03:07:53.552Z,16.77
2022-10-13T03:10:40.378Z,14.53
2022-10-13T03:13:28.053Z,17.20
2022-10-13T03:16:23.213Z,16.50
2022-10-13T03:19:10.137Z,13.67
2022-10-13T03:21:56.981Z,16.87
2022-10-13T03:24:43.815Z,16.10
2022-10-13T03:27:30.746Z,11.97
2022-10-13T03:30:18.377Z,13.90
2022-10-13T03:33:05.266Z,13.33
2022-10-13T03:35:52.086Z,14.13
2022-10-13T03:38:39.662Z,15.57
2022-10-13T03:41:28.170Z,15.50
2022-10-13T03:44:15.342Z,13.97
2022-10-13T03:47:02.826Z,15.00
2022-10-13T03:49:49.692Z,13.30
2022-10-13T03:52:36.590Z,17.00
2022-10-13T03:55:23.998Z,17.03
2022-10-13T03:58:10.810Z,13.17
2022-10-13T04:01:03.922Z,15.50
2022-10-13T04:03:53.055Z,13.23
2022-10-13T04:06:39.912Z,14.43
2022-10-13T04:09:26.930Z,16.47
2022-10-13T04:12:17.165Z,16.77
2022-10-13T04:15:08.782Z,13.27
2022-10-13T04:17:55.647Z,16.53
2022-10-13T04:20:43.128Z,13.83
2022-10-13T04:23:29.946Z,15.73
2022-10-13T04:26:18.751Z,14.30
2022-10-13T04:29:07.307Z,15.63
2022-10-13T04:31:54.672Z,15.97
2022-10-13T04:34:41.523Z,14.13
2022-10-13T04:37:29.052Z,15.87
2022-10-13T04:40:16.228Z,16.30
2022-10-13T04:43:03.092Z,16.67
2022-10-13T04:45:49.924Z,15.67
2022-10-13T04:48:36.768Z,14.43
2022-10-13T04:51:25.225Z,15.10
2022-10-13T04:54:13.573Z,17.73
2022-10-13T04:57:00.440Z,15.47
2022-10-13T04:59:47.323Z,16.63
2022-10-13T05:02:34.983Z,16.60
2022-10-13T05:05:23.426Z,18.13
2022-10-13T05:08:10.286Z,22.80
2022-10-13T05:11:00.628Z,16.43
2022-10-13T05:13:48.100Z,15.57
2022-10-13T05:16:34.932Z,15.90
2022-10-13T05:19:21.785Z,18.60
2022-10-13T05:22:09.297Z,13.57
2022-10-13T05:24:56.125Z,12.93
2022-10-13T05:27:44.370Z,13.53
2022-10-13T05:30:31.745Z,16.00
2022-10-13T05:33:20.853Z,15.03
2022-10-13T05:36:10.089Z,16.37
2022-10-13T05:38:59.261Z,15.07
2022-10-13T05:41:46.318Z,18.00
2022-10-13T05:44:41.217Z,12.90
2022-10-13T05:47:28.058Z,18.10
2022-10-13T05:50:16.204Z,16.43
2022-10-13T05:53:03.202Z,14.93
2022-10-13T05:55:50.793Z,16.23
2022-10-13T05:58:42.923Z,13.83
2022-10-13T06:01:33.671Z,16.43
2022-10-13T06:04:25.694Z,17.10
2022-10-13T06:07:12.918Z,15.27
2022-10-13T06:10:01.478Z,14.57
2022-10-13T06:12:48.342Z,14.70
2022-10-13T06:15:35.262Z,13.57
2022-10-13T06:18:23.030Z,16.40
2022-10-13T06:21:09.998Z,14.30
2022-10-13T06:23:56.799Z,12.67
2022-10-13T06:26:43.660Z,15.77
2022-10-13T06:29:32.097Z,15.43
2022-10-13T06:32:19.334Z,16.27
2022-10-13T06:35:08.085Z,13.90
2022-10-13T06:37:56.266Z,13.57
2022-10-13T06:40:43.301Z,19.23
2022-10-13T06:43:38.646Z,14.40
2022-10-13T06:46:29.486Z,14.30
2022-10-13T06:49:16.560Z,14.97
2022-10-13T06:52:04.266Z,18.43
2022-10-13T06:54:51.201Z,11.63
2022-10-13T06:57:38.061Z,13.47
2022-10-13T07:00:26.611Z,12.13
2022-10-13T07:03:13.485Z,14.23
2022-10-13T07:06:01.476Z,15.23
2022-10-13T07:08:49.176Z,17.13
2022-10-13T07:11:36.283Z,15.93
2022-10-13T07:14:23.165Z,12.93
2022-10-13T07:17:10.416Z,14.07
2022-10-13T07:19:58.036Z,14.87
2022-10-13T07:22:46.680Z,15.00
2022-10-13T07:25:34.912Z,14.67
2022-10-13T07:28:21.909Z,12.00
2022-10-13T07:31:12.838Z,13.93
2022-10-13T07:34:00.918Z,13.27
2022-10-13T07:36:48.601Z,11.90
2022-10-13T07:39:35.453Z,17.60
2022-10-13T07:42:23.011Z,16.47
2022-10-13T07:45:10.410Z,14.67
2022-10-13T07:47:57.239Z,18.03
2022-10-13T07:50:44.064Z,14.97
2022-10-13T07:53:30.883Z,14.87
2022-10-13T07:56:17.761Z,17.53
2022-10-13T07:59:05.238Z,12.40
2022-10-13T08:01:52.095Z,16.67
2022-10-13T08:04:38.961Z,15.23
2022-10-13T08:07:25.818Z,14.57
2022-10-13T08:10:12.919Z,17.23
2022-10-13T08:12:59.762Z,16.37
2022-10-13T08:15:47.293Z,16.70
2022-10-13T08:18:34.209Z,14.80
2022-10-13T08:21:53.211Z,14.13
2022-10-13T08:24:28.733Z,15.23
2022-10-13T08:27:20.148Z,16.43
2022-10-13T08:30:08.909Z,16.73
2022-10-13T08:32:57.308Z,12.50
2022-10-13T08:35:44.277Z,15.07
2022-10-13T08:38:31.172Z,15.13
2022-10-13T08:41:20.684Z,15.87
2022-10-13T08:47:39.674Z,14.83
2022-10-13T08:50:30.998Z,14.77
2022-10-13T08:53:25.069Z,15.27
2022-10-13T08:56:18.231Z,17.00
2022-10-13T08:59:10.218Z,16.83
2022-10-13T09:01:57.482Z,20.03
2022-10-13T09:04:49.983Z,14.93
2022-10-13T09:07:38.936Z,19.70
2022-10-13T09:10:25.899Z,16.93
2022-10-13T09:13:12.760Z,17.33
2022-10-13T09:15:59.675Z,16.67
2022-10-13T09:18:46.500Z,17.30
2022-10-13T09:21:36.016Z,12.65
2022-10-13T09:24:25.770Z,14.65
2022-10-13T09:27:15.812Z,16.33
2022-10-13T09:30:31.407Z,12.50
2022-10-13T09:33:23.656Z,15.48
2022-10-13T09:36:12.588Z,14.55
2022-10-13T09:39:10.857Z,17.27
2022-10-13T09:42:22.741Z,15.75
2022-10-13T09:45:14.574Z,12.68
2022-10-13T09:48:04.703Z,13.98
2022-10-13T09:50:53.239Z,12.45
2022-10-13T09:53:45.698Z,16.58
2022-10-13T09:56:37.827Z,10.88
2022-10-13T09:59:32.454Z,11.85
2022-10-13T10:02:31.322Z,14.15
2022-10-13T10:05:24.233Z,13.15
2022-10-13T10:08:22.561Z,16.88
2022-10-13T10:11:18.943Z,12.85
2022-10-13T10:14:15.243Z,14.95
2022-10-13T10:17:12.262Z,13.52
2022-10-13T10:20:11.296Z,13.75
2022-10-13T10:23:05.223Z,11.27
2022-10-13T10:25:57.820Z,13.32
2022-10-13T10:29:01.539Z,11.88
2022-10-13T10:32:08.342Z,14.50
2022-10-13T10:35:01.508Z,18.70
2022-10-13T10:38:03.201Z,9.45
2022-10-13T10:40:58.908Z,10.63
2022-10-13T10:43:54.584Z,11.15
2022-10-13T10:46:45.982Z,10.55
2022-10-13T10:49:35.581Z,15.20
2022-10-13T10:52:26.994Z,11.68
2022-10-13T10:55:23.373Z,10.45
2022-10-13T10:58:22.826Z,9.27
2022-10-13T11:01:26.719Z,10.13
2022-10-13T11:04:39.389Z,12.15
2022-10-13T11:07:55.304Z,8.93
2022-10-13T11:10:42.162Z,10.93
2022-10-13T11:13:29.006Z,9.20
2022-10-13T11:16:33.725Z,8.73
2022-10-13T11:19:32.418Z,9.38
2022-10-13T11:22:22.155Z,10.57
2022-10-13T11:25:38.708Z,14.35
2022-10-13T11:28:45.432Z,14.65
2022-10-13T11:31:49.820Z,9.95
2022-10-13T11:34:36.811Z,12.70
2022-10-13T11:37:30.301Z,15.35
2022-10-13T11:40:28.555Z,14.27
2022-10-13T11:43:36.571Z,12.07
2022-10-13T11:46:26.875Z,13.02
2022-10-13T11:49:34.408Z,10.15
2022-10-13T11:52:35.500Z,11.95
2022-10-13T11:55:32.597Z,12.25
2022-10-13T11:58:22.328Z,7.82
2022-10-13T12:01:14.028Z,12.27
2022-10-13T12:04:13.224Z,15.07
2022-10-13T12:07:02.908Z,8.80
2022-10-13T12:09:52.297Z,11.65
2022-10-13T12:12:46.897Z,11.25
2022-10-13T12:15:35.896Z,11.68
2022-10-13T12:18:26.689Z,12.10
2022-10-13T12:21:16.628Z,9.10
2022-10-13T12:24:08.651Z,9.15
2022-10-13T12:26:57.248Z,11.73
2022-10-13T12:29:45.032Z,8.43
2022-10-13T12:32:35.036Z,10.85
2022-10-13T12:35:25.668Z,10.65
2022-10-13T12:38:18.140Z,13.27
2022-10-13T12:41:05.616Z,8.18
2022-10-13T12:43:53.770Z,8.65
2022-10-13T12:46:42.415Z,9.85
2022-10-13T12:49:31.112Z,9.20
2022-10-13T12:52:23.006Z,11.10
2022-10-13T12:55:15.975Z,11.25
2022-10-13T12:58:03.051Z,11.10
2022-10-13T13:01:02.529Z,9.23
2022-10-13T13:03:55.057Z,7.90
2022-10-13T13:06:52.196Z,9.18
2022-10-13T13:09:41.596Z,11.32
2022-10-13T13:12:28.913Z,10.15
2022-10-13T13:15:31.076Z,12.07
2022-10-13T13:18:38.769Z,10.90
2022-10-13T13:21:25.618Z,8.20
2022-10-13T13:24:28.300Z,9.32
2022-10-13T13:27:40.204Z,10.13
2022-10-13T13:30:28.137Z,9.73
2022-10-13T13:33:14.995Z,11.88
2022-10-13T13:36:04.965Z,10.05
2022-10-13T13:38:52.661Z,9.07
2022-10-13T13:41:39.498Z,13.00
2022-10-13T13:44:26.341Z,12.48
2022-10-13T13:47:16.884Z,10.77
2022-10-13T13:50:14.282Z,12.15
2022-10-13T13:53:04.182Z,11.43
2022-10-13T13:55:51.357Z,12.85
2022-10-13T13:58:38.429Z,13.48
2022-10-13T14:01:25.326Z,9.73
2022-10-13T14:04:12.226Z,11.70
2022-10-13T14:06:59.058Z,10.00
2022-10-13T14:09:46.661Z,12.55
2022-10-13T14:12:33.878Z,11.35
2022-10-13T14:15:23.408Z,10.98
2022-10-13T14:18:12.949Z,12.63
2022-10-13T14:20:59.827Z,11.75
2022-10-13T14:23:46.678Z,11.88
2022-10-13T14:26:34.144Z,12.27
2022-10-13T14:29:21.117Z,12.65
2022-10-13T14:32:07.945Z,12.48
2022-10-13T14:34:54.785Z,11.50
2022-10-13T14:37:41.642Z,17.58
2022-10-13T14:40:28.513Z,12.80
2022-10-13T14:43:15.986Z,12.87
2022-10-13T14:46:04.537Z,14.45
2022-10-13T14:48:51.550Z,12.87
2022-10-13T14:51:38.462Z,10.52
2022-10-13T14:54:25.600Z,13.25
2022-10-13T14:57:14.905Z,17.55
2022-10-13T15:00:03.147Z,10.73
2022-10-13T15:02:50.166Z,17.13
2022-10-13T15:05:38.258Z,13.95
2022-10-13T15:08:25.322Z,15.48
2022-10-13T15:11:13.203Z,14.35
2022-10-13T15:14:00.152Z,13.38
2022-10-13T15:16:47.667Z,12.30
2022-10-13T15:19:34.649Z,15.63
2022-10-13T15:22:23.751Z,11.83
2022-10-13T15:25:11.067Z,15.00
2022-10-13T15:27:57.881Z,13.47
2022-10-13T15:30:45.395Z,14.10
2022-10-13T15:33:34.585Z,18.67
2022-10-13T15:36:22.499Z,12.07
2022-10-13T15:39:10.217Z,14.23
2022-10-13T15:41:57.043Z,15.07
2022-10-13T15:47:51.068Z,14.00
2022-10-13T15:50:39.716Z,13.57
2022-10-13T15:53:26.759Z,14.63
2022-10-13T15:56:14.515Z,16.13
2022-10-13T15:59:01.389Z,14.50
2022-10-13T16:01:48.284Z,14.60
2022-10-13T16:04:37.600Z,14.35
2022-10-13T16:07:25.300Z,17.57
2022-10-13T16:10:13.754Z,17.67
2022-10-13T16:13:00.647Z,16.43
2022-10-13T16:15:56.593Z,15.37
2022-10-13T16:18:43.753Z,15.48
2022-10-13T16:21:30.633Z,17.07
2022-10-13T16:24:18.115Z,18.77
2022-10-13T16:27:05.044Z,18.50
2022-10-13T16:29:53.615Z,17.42
2022-10-13T16:32:40.767Z,15.20
2022-10-13T16:35:27.616Z,16.60
2022-10-13T16:38:14.518Z,19.87
2022-10-13T16:41:04.380Z,18.10
2022-10-13T16:43:51.209Z,19.00
2022-10-13T16:46:38.118Z,18.83
2022-10-13T16:49:25.115Z,17.13
2022-10-13T16:52:11.935Z,18.03
2022-10-13T16:54:58.751Z,19.20
2022-10-13T16:57:47.173Z,19.90
2022-10-13T17:00:34.954Z,19.50
2022-10-13T17:03:21.820Z,19.63
2022-10-13T17:06:10.037Z,19.20
2022-10-13T17:08:58.714Z,16.07
2022-10-13T17:11:45.776Z,19.77
2022-10-13T17:14:33.309Z,18.23
2022-10-13T17:17:20.260Z,18.53
2022-10-13T17:20:07.868Z,19.47
2022-10-13T17:22:57.304Z,16.50
2022-10-13T17:25:44.172Z,16.70
2022-10-13T17:28:31.474Z,17.67
2022-10-13T17:31:22.476Z,16.93
2022-10-13T17:34:09.454Z,20.60
2022-10-13T17:36:58.104Z,17.92
2022-10-13T17:39:45.011Z,23.37
2022-10-13T17:42:33.367Z,18.02
2022-10-13T17:45:20.619Z,19.92
2022-10-13T17:48:08.130Z,20.30
2022-10-13T17:51:00.704Z,17.33
2022-10-13T17:53:48.914Z,19.35
2022-10-13T17:56:36.330Z,19.83
2022-10-13T17:59:23.394Z,20.77
2022-10-13T18:02:10.451Z,21.63
2022-10-13T18:04:58.226Z,20.20
2022-10-13T18:07:45.232Z,20.30
2022-10-13T18:11:03.476Z,21.50
2022-10-13T18:13:41.615Z,20.20
2022-10-13T18:16:28.518Z,19.33
2022-10-13T18:19:15.475Z,22.07
2022-10-13T18:22:03.218Z,19.80
2022-10-13T18:24:54.561Z,20.00
2022-10-13T18:27:43.714Z,18.00
2022-10-13T18:30:32.734Z,19.90
2022-10-13T18:33:19.559Z,23.70
2022-10-13T18:36:14.908Z,23.20
2022-10-13T18:39:04.607Z,17.43
2022-10-13T18:41:52.844Z,20.90
2022-10-13T18:44:39.715Z,19.23
2022-10-13T18:47:26.587Z,18.60
2022-10-13T18:50:13.439Z,22.80
2022-10-13T18:53:00.274Z,21.77
2022-10-13T18:55:47.810Z,17.97
2022-10-13T18:58:34.981Z,17.63
2022-10-13T19:01:23.784Z,20.97
2022-10-13T19:04:13.811Z,18.23
2022-10-13T19:07:00.672Z,17.67
2022-10-13T19:09:47.515Z,17.93
2022-10-13T19:12:35.019Z,19.13
2022-10-13T19:15:21.875Z,18.67
2022-10-13T19:18:10.029Z,18.23
2022-10-13T19:20:59.084Z,18.00
2022-10-13T19:23:46.204Z,19.23
2022-10-13T19:26:38.888Z,16.03
2022-10-13T19:29:26.468Z,22.10
2022-10-13T19:32:13.328Z,20.23
2022-10-13T19:35:00.302Z,17.43
2022-10-13T19:37:47.176Z,17.70
2022-10-13T19:40:36.813Z,20.60
2022-10-13T19:43:25.780Z,18.03
2022-10-13T19:46:13.433Z,18.00
2022-10-13T19:49:00.301Z,18.07
2022-10-13T19:51:48.773Z,17.23
2022-10-13T19:54:36.281Z,20.13
2022-10-13T19:57:23.255Z,17.00
2022-10-13T20:00:11.777Z,20.70
2022-10-13T20:03:01.021Z,17.33
2022-10-13T20:05:47.869Z,20.33
2022-10-13T20:08:34.714Z,27.83
2022-10-13T20:11:24.077Z,19.07
2022-10-13T20:14:11.258Z,20.07
2022-10-13T20:16:58.126Z,23.93
2022-10-13T20:19:45.763Z,26.07
2022-10-13T20:22:33.027Z,23.63
2022-10-13T20:25:20.036Z,21.07
2022-10-13T20:28:06.890Z,18.87
2022-10-13T20:30:53.729Z,22.27
2022-10-13T20:33:41.716Z,22.87
2022-10-13T20:36:29.250Z,21.17
2022-10-13T20:39:16.098Z,20.97
2022-10-13T20:42:03.203Z,18.50
2022-10-13T20:44:50.074Z,21.77
2022-10-13T20:47:36.902Z,20.37
2022-10-13T20:50:23.750Z,20.37
2022-10-13T20:53:11.195Z,20.87
2022-10-13T20:55:58.758Z,21.30
2022-10-13T20:58:46.007Z,20.20
2022-10-13T21:01:33.417Z,21.40
2022-10-13T21:04:20.276Z,23.67
2022-10-13T21:07:07.100Z,20.70
2022-10-13T21:09:54.586Z,18.83
2022-10-13T21:12:41.413Z,20.43
2022-10-13T21:15:28.565Z,21.47
2022-10-13T21:18:15.562Z,21.30
2022-10-13T21:21:04.617Z,20.50
2022-10-13T21:23:52.797Z,22.37
2022-10-13T21:26:40.599Z,24.37
2022-10-13T21:29:33.455Z,24.63
2022-10-13T21:32:20.291Z,19.50
2022-10-13T21:35:07.988Z,18.60
2022-10-13T21:37:54.848Z,17.60
2022-10-13T21:40:41.708Z,18.83
2022-10-13T21:43:29.763Z,18.23
2022-10-13T21:46:18.924Z,19.73
2022-10-13T21:49:06.147Z,20.50
2022-10-13T21:51:54.500Z,19.90
2022-10-13T21:54:41.360Z,20.17
2022-10-13T21:57:28.212Z,20.50
2022-10-13T22:00:16.023Z,17.63
2022-10-13T22:03:02.930Z,23.13
2022-10-13T22:05:49.749Z,20.17
2022-10-13T22:08:38.545Z,23.60
2022-10-13T22:11:35.452Z,20.57
2022-10-13T22:14:29.566Z,21.77
2022-10-13T22:17:17.040Z,22.40
2022-10-13T22:20:04.410Z,22.07
2022-10-13T22:22:51.248Z,29.10
2022-10-13T22:25:43.154Z,20.13
2022-10-13T22:28:36.096Z,22.97
2022-10-13T22:31:24.092Z,19.83
2022-10-13T22:34:13.025Z,21.27
2022-10-13T22:36:59.906Z,19.13
2022-10-13T22:39:47.877Z,16.80
2022-10-13T22:42:34.704Z,18.63
2022-10-13T22:45:21.537Z,22.13
2022-10-13T22:48:10.508Z,21.57
2022-10-13T22:50:57.956Z,17.03
2022-10-13T22:53:49.903Z,18.87
2022-10-13T22:56:36.758Z,16.10
2022-10-13T22:59:26.670Z,17.47
2022-10-13T23:02:13.497Z,17.23
2022-10-13T23:05:00.566Z,19.33
2022-10-13T23:07:49.046Z,19.57
2022-10-13T23:10:36.521Z,17.73
2022-10-13T23:13:23.726Z,16.77
2022-10-13T23:16:13.230Z,16.70
2022-10-13T23:19:02.865Z,20.43
2022-10-13T23:21:49.729Z,17.65
2022-10-13T23:24:37.189Z,17.33
2022-10-13T23:27:24.179Z,16.40
2022-10-13T23:30:12.675Z,22.07
2022-10-13T23:32:59.493Z,16.27
2022-10-13T23:35:53.706Z,21.80
2022-10-13T23:38:40.627Z,18.93
2022-10-13T23:41:28.698Z,19.33
2022-10-13T23:44:15.664Z,17.53
2022-10-13T23:47:02.515Z,17.60
2022-10-13T23:49:49.353Z,17.17
2022-10-13T23:52:36.214Z,17.43
2022-10-13T23:55:23.120Z,19.80
2022-10-13T23:58:10.721Z,16.47
